createdAt,value
2019-02-23T00:01:12.799Z,92.30
2019-02-23T00:03:53.895Z,91.90
2019-02-23T00:06:34.593Z,92.10
2019-02-23T00:09:15.391Z,92.10
2019-02-23T00:11:55.969Z,91.40
2019-02-23T00:14:36.872Z,91.40
2019-02-23T00:17:17.724Z,91.50
2019-02-23T00:19:58.544Z,91.60
2019-02-23T00:22:39.140Z,91.30
2019-02-23T00:25:20.128Z,91.70
2019-02-23T00:28:00.600Z,92.50
2019-02-23T00:30:41.304Z,92.60
2019-02-23T00:33:22.012Z,92.30
2019-02-23T00:36:02.697Z,92.20
2019-02-23T00:38:43.265Z,92.10
2019-02-23T00:41:24.013Z,92.30
2019-02-23T00:44:04.635Z,92.40
2019-02-23T00:46:45.412Z,92.30
2019-02-23T00:49:35.832Z,92.90
2019-02-23T00:52:08.301Z,92.40
2019-02-23T00:54:48.935Z,92.40
2019-02-23T00:57:29.577Z,92.40
2019-02-23T01:00:10.508Z,92.60
2019-02-23T01:02:51.909Z,92.50
2019-02-23T01:05:32.375Z,92.40
2019-02-23T01:08:00.819Z,92.30
2019-02-23T01:10:57.721Z,92.20
2019-02-23T01:13:38.100Z,92.50
2019-02-23T01:16:25.931Z,92.80
2019-02-23T01:19:13.683Z,92.40
2019-02-23T01:22:01.436Z,93.00
2019-02-23T01:24:49.191Z,93.00
2019-02-23T01:27:37.165Z,93.20
2019-02-23T01:30:24.913Z,93.20
2019-02-23T01:33:12.684Z,92.80
2019-02-23T01:36:00.420Z,93.10
2019-02-23T01:38:48.185Z,93.20
2019-02-23T01:41:35.930Z,93.30
2019-02-23T01:44:23.688Z,93.00
2019-02-23T01:47:11.438Z,93.60
2019-02-23T01:49:59.444Z,93.60
2019-02-23T01:52:41.585Z,93.60
2019-02-23T01:55:22.886Z,93.50
2019-02-23T01:58:03.440Z,93.60
2019-02-23T02:00:44.177Z,93.70
2019-02-23T02:03:24.865Z,93.30
2019-02-23T02:06:05.681Z,93.80
2019-02-23T02:08:46.398Z,93.70
2019-02-23T02:11:27.131Z,93.80
2019-02-23T02:14:07.589Z,93.80
2019-02-23T02:16:47.773Z,94.00
2019-02-23T02:19:28.453Z,93.70
2019-02-23T02:22:09.245Z,93.90
2019-02-23T02:24:49.969Z,93.80
2019-02-23T02:27:30.576Z,94.00
2019-02-23T02:30:11.586Z,93.80
2019-02-23T02:32:52.474Z,93.30
2019-02-23T02:35:33.648Z,93.80
2019-02-23T02:38:14.198Z,93.50
2019-02-23T02:40:54.787Z,93.30
2019-02-23T02:43:35.573Z,93.40
2019-02-23T02:46:16.517Z,93.20
2019-02-23T02:48:57.291Z,93.10
2019-02-23T02:51:38.125Z,93.40
2019-02-23T02:54:19.111Z,93.60
2019-02-23T02:56:59.761Z,93.60
2019-02-23T02:59:40.589Z,93.40
2019-02-23T03:02:21.601Z,93.40
2019-02-23T03:05:02.312Z,93.70
2019-02-23T03:07:30.737Z,93.40
2019-02-23T03:10:18.470Z,93.10
2019-02-23T03:13:06.240Z,93.00
2019-02-23T03:15:53.972Z,93.00
2019-02-23T03:18:41.733Z,93.30
2019-02-23T03:21:29.473Z,93.10
2019-02-23T03:24:17.228Z,93.30
2019-02-23T03:27:04.987Z,93.10
2019-02-23T03:29:52.731Z,93.40
2019-02-23T03:32:40.485Z,93.50
2019-02-23T03:35:28.473Z,93.40
2019-02-23T03:38:16.225Z,93.40
2019-02-23T03:41:03.962Z,93.30
2019-02-23T03:43:51.734Z,93.70
2019-02-23T03:46:39.471Z,93.50
2019-02-23T03:49:34.574Z,93.60
2019-02-23T03:52:22.397Z,93.60
2019-02-23T03:55:02.780Z,93.80
2019-02-23T03:57:43.637Z,93.80
2019-02-23T04:00:24.636Z,93.60
2019-02-23T04:03:05.724Z,93.90
2019-02-23T04:05:46.666Z,94.10
2019-02-23T04:08:27.067Z,93.90
2019-02-23T04:11:07.893Z,94.10
2019-02-23T04:13:48.545Z,94.10
2019-02-23T04:16:29.574Z,94.10
2019-02-23T04:19:10.574Z,94.30
2019-02-23T04:21:51.376Z,94.00
2019-02-23T04:24:32.214Z,94.20
2019-02-23T04:27:00.648Z,94.40
2019-02-23T04:29:48.380Z,94.20
2019-02-23T04:32:36.140Z,94.50
2019-02-23T04:35:23.881Z,94.40
2019-02-23T04:37:52.292Z,94.60
2019-02-23T04:40:40.048Z,95.10
2019-02-23T04:43:28.124Z,94.60
2019-02-23T04:46:16.196Z,94.40
2019-02-23T04:49:03.942Z,94.60
2019-02-23T04:51:51.689Z,94.40
2019-02-23T04:54:39.440Z,94.70
2019-02-23T04:57:27.432Z,95.00
2019-02-23T05:00:08.259Z,95.00
2019-02-23T05:02:49.000Z,95.10
2019-02-23T05:05:29.790Z,94.90
2019-02-23T05:08:10.780Z,94.90
2019-02-23T05:10:51.293Z,95.00
2019-02-23T05:13:31.585Z,94.90
2019-02-23T05:16:12.417Z,94.90
2019-02-23T05:18:53.169Z,94.90
2019-02-23T05:21:34.160Z,95.10
2019-02-23T05:24:15.217Z,94.80
2019-02-23T05:26:56.028Z,95.30
2019-02-23T05:29:37.131Z,95.50
2019-02-23T05:32:17.945Z,95.50
2019-02-23T05:34:58.898Z,95.50
2019-02-23T05:37:39.812Z,95.80
2019-02-23T05:40:20.784Z,95.90
2019-02-23T05:43:01.766Z,96.20
2019-02-23T05:45:30.249Z,96.30
2019-02-23T05:51:17.160Z,96.00
2019-02-23T05:54:04.900Z,96.30
2019-02-23T05:56:52.666Z,96.00
2019-02-23T05:59:40.398Z,95.90
2019-02-23T06:02:20.912Z,96.10
2019-02-23T06:05:01.294Z,96.10
2019-02-23T06:07:41.837Z,95.70
2019-02-23T06:10:22.838Z,95.80
2019-02-23T06:13:03.481Z,95.60
2019-02-23T06:15:44.428Z,95.80
2019-02-23T06:18:25.210Z,95.60
2019-02-23T06:21:05.985Z,95.70
2019-02-23T06:23:46.566Z,95.40
2019-02-23T06:26:27.485Z,96.20
2019-02-23T06:29:08.251Z,96.40
2019-02-23T06:31:49.186Z,96.20
2019-02-23T06:34:30.232Z,96.70
2019-02-23T06:37:11.147Z,96.80
2019-02-23T06:39:51.717Z,97.00
2019-02-23T06:42:32.085Z,97.20
2019-02-23T06:45:12.682Z,97.20
2019-02-23T06:47:53.183Z,97.30
2019-02-23T06:50:33.968Z,97.30
2019-02-23T06:53:14.473Z,97.80
2019-02-23T06:55:55.116Z,97.40
2019-02-23T06:58:35.840Z,97.60
2019-02-23T07:01:16.653Z,97.90
2019-02-23T07:03:57.324Z,98.10
2019-02-23T07:06:38.076Z,98.40
2019-02-23T07:09:18.782Z,98.20
2019-02-23T07:11:59.144Z,98.20
2019-02-23T07:14:40.013Z,98.10
2019-02-23T07:17:20.800Z,98.10
2019-02-23T07:20:01.670Z,98.10
2019-02-23T07:22:42.378Z,97.70
2019-02-23T07:25:23.345Z,98.50
2019-02-23T07:28:04.749Z,98.70
2019-02-23T07:30:45.730Z,98.30
2019-02-23T07:33:32.692Z,98.20
2019-02-23T07:36:08.872Z,98.00
2019-02-23T07:38:49.436Z,98.20
2019-02-23T07:41:30.384Z,98.40
2019-02-23T07:44:10.993Z,98.40
2019-02-23T07:46:51.928Z,98.30
2019-02-23T07:49:32.431Z,98.00
2019-02-23T07:52:13.576Z,97.00
2019-02-23T07:54:54.600Z,96.90
2019-02-23T07:57:35.565Z,97.30
2019-02-23T08:00:16.264Z,97.50
2019-02-23T08:02:56.637Z,97.60
2019-02-23T08:05:37.369Z,97.20
2019-02-23T08:08:18.146Z,97.50
2019-02-23T08:10:58.806Z,97.10
2019-02-23T08:13:40.729Z,97.30
2019-02-23T08:16:21.091Z,96.80
2019-02-23T08:19:02.134Z,97.20
2019-02-23T08:21:43.153Z,97.00
2019-02-23T08:24:23.805Z,96.70
2019-02-23T08:27:04.393Z,96.70
2019-02-23T08:29:45.384Z,96.60
2019-02-23T08:32:26.167Z,96.40
2019-02-23T08:35:06.912Z,96.50
2019-02-23T08:37:47.995Z,96.40
2019-02-23T08:40:28.582Z,96.30
2019-02-23T08:43:09.056Z,96.30
2019-02-23T08:45:49.378Z,96.50
2019-02-23T08:48:30.200Z,96.10
2019-02-23T08:51:10.790Z,96.00
2019-02-23T08:53:51.564Z,96.10
2019-02-23T08:56:32.247Z,95.80
2019-02-23T08:59:13.119Z,96.20
2019-02-23T09:01:54.327Z,95.90
2019-02-23T09:04:34.984Z,96.10
2019-02-23T09:07:15.635Z,95.90
2019-02-23T09:09:56.892Z,95.50
2019-02-23T09:12:25.624Z,96.20
2019-02-23T09:15:13.437Z,95.50
2019-02-23T09:18:01.195Z,97.30
2019-02-23T09:20:48.929Z,95.20
2019-02-23T09:23:36.968Z,95.20
2019-02-23T09:26:24.748Z,95.00
2019-02-23T09:29:12.503Z,95.20
2019-02-23T09:32:00.342Z,95.40
2019-02-23T09:34:48.082Z,95.60
2019-02-23T09:37:35.856Z,94.90
2019-02-23T09:40:23.592Z,94.80
2019-02-23T09:43:04.076Z,94.80
2019-02-23T09:45:45.246Z,94.70
2019-02-23T09:48:26.176Z,94.40
2019-02-23T09:51:06.928Z,94.30
2019-02-23T09:53:47.756Z,94.50
2019-02-23T09:56:28.886Z,94.70
2019-02-23T09:59:09.821Z,94.40
2019-02-23T10:01:51.037Z,93.70
2019-02-23T10:04:31.544Z,93.30
2019-02-23T10:07:12.036Z,93.70
2019-02-23T10:09:53.109Z,93.60
2019-02-23T10:12:34.063Z,94.10
2019-02-23T10:15:15.217Z,93.20
2019-02-23T10:17:55.841Z,92.70
2019-02-23T10:20:36.465Z,93.00
2019-02-23T10:23:22.086Z,92.80
2019-02-23T10:25:59.581Z,92.70
2019-02-23T10:28:40.283Z,92.60
2019-02-23T10:31:20.596Z,91.40
2019-02-23T10:34:01.501Z,90.60
2019-02-23T10:36:42.382Z,87.90
2019-02-23T10:39:23.417Z,87.00
2019-02-23T10:42:04.138Z,85.90
2019-02-23T10:44:45.484Z,86.30
2019-02-23T10:47:26.349Z,86.90
2019-02-23T10:50:07.413Z,90.60
2019-02-23T10:52:48.808Z,85.10
2019-02-23T10:55:29.178Z,86.50
2019-02-23T10:58:09.801Z,84.80
2019-02-23T11:00:50.772Z,84.80
2019-02-23T11:03:31.437Z,83.50
2019-02-23T11:06:12.130Z,81.80
2019-02-23T11:08:52.881Z,82.10
2019-02-23T11:11:33.964Z,81.70
2019-02-23T11:14:14.812Z,81.60
2019-02-23T11:16:55.008Z,81.80
2019-02-23T11:19:35.805Z,79.80
2019-02-23T11:22:16.594Z,81.60
2019-02-23T11:24:57.609Z,80.40
2019-02-23T11:27:39.025Z,81.80
2019-02-23T11:30:19.902Z,79.10
2019-02-23T11:33:00.691Z,80.30
2019-02-23T11:35:41.749Z,78.00
2019-02-23T11:38:22.692Z,75.90
2019-02-23T11:41:03.598Z,93.70
2019-02-23T11:43:44.150Z,73.90
2019-02-23T11:46:24.803Z,73.20
2019-02-23T11:49:08.209Z,73.80
2019-02-23T11:51:48.733Z,71.70
2019-02-23T11:54:29.776Z,72.60
2019-02-23T11:57:10.437Z,72.60
2019-02-23T11:59:51.315Z,72.10
2019-02-23T12:02:32.205Z,72.10
2019-02-23T12:05:00.710Z,71.50
2019-02-23T12:07:48.447Z,70.80
2019-02-23T12:10:36.497Z,71.50
2019-02-23T12:13:24.233Z,71.40
2019-02-23T12:16:12.023Z,70.50
2019-02-23T12:18:59.786Z,70.90
2019-02-23T12:21:47.840Z,71.00
2019-02-23T12:24:35.586Z,73.50
2019-02-23T12:27:23.452Z,73.40
2019-02-23T12:30:11.184Z,72.00
2019-02-23T12:32:58.949Z,72.60
2019-02-23T12:35:46.689Z,71.20
2019-02-23T12:38:34.468Z,72.90
2019-02-23T12:41:15.261Z,74.00
2019-02-23T12:43:56.140Z,73.00
2019-02-23T12:46:36.786Z,72.80
2019-02-23T12:49:17.540Z,72.10
2019-02-23T12:51:58.376Z,72.90
2019-02-23T12:54:38.961Z,72.40
2019-02-23T12:57:19.888Z,72.30
2019-02-23T13:00:00.734Z,72.80
2019-02-23T13:02:41.380Z,72.90
2019-02-23T13:05:22.097Z,73.60
2019-02-23T13:08:02.872Z,72.90
2019-02-23T13:10:43.740Z,72.90
2019-02-23T13:13:24.432Z,71.80
2019-02-23T13:16:05.085Z,72.20
2019-02-23T13:18:45.684Z,72.30
2019-02-23T13:21:26.810Z,71.50
2019-02-23T13:24:07.389Z,72.10
2019-02-23T13:26:48.144Z,71.80
2019-02-23T13:29:28.877Z,72.20
2019-02-23T13:32:09.646Z,72.60
2019-02-23T13:34:50.480Z,72.90
2019-02-23T13:37:31.223Z,73.80
2019-02-23T13:40:12.493Z,71.90
2019-02-23T13:42:53.207Z,72.30
2019-02-23T13:45:34.276Z,73.10
2019-02-23T13:48:15.213Z,73.20
2019-02-23T13:50:55.908Z,71.50
2019-02-23T13:53:36.343Z,71.70
2019-02-23T13:56:17.105Z,70.70
2019-02-23T13:58:58.118Z,71.70
2019-02-23T14:01:38.925Z,71.90
2019-02-23T14:04:19.925Z,71.70
2019-02-23T14:07:28.411Z,72.10
2019-02-23T14:10:35.481Z,72.00
2019-02-23T14:13:42.573Z,72.30
2019-02-23T14:16:52.206Z,71.40
2019-02-23T14:19:59.875Z,72.10
2019-02-23T14:23:08.609Z,72.40
2019-02-23T14:26:15.721Z,71.70
2019-02-23T14:29:22.841Z,71.60
2019-02-23T14:32:30.144Z,71.90
2019-02-23T14:35:38.651Z,71.70
2019-02-23T14:38:45.708Z,70.90
2019-02-23T14:41:45.004Z,71.70
2019-02-23T14:47:44.937Z,71.60
2019-02-23T14:50:52.035Z,70.90
2019-02-23T14:53:33.096Z,71.20
2019-02-23T14:56:13.912Z,70.70
2019-02-23T14:58:54.297Z,70.70
2019-02-23T15:01:35.067Z,69.70
2019-02-23T15:04:16.039Z,69.80
2019-02-23T15:06:56.953Z,69.30
2019-02-23T15:09:38.318Z,70.50
2019-02-23T15:12:19.360Z,71.40
2019-02-23T15:15:00.339Z,69.00
2019-02-23T15:17:40.724Z,68.80
2019-02-23T15:20:21.521Z,68.40
2019-02-23T15:23:02.517Z,68.50
2019-02-23T15:25:43.488Z,67.30
2019-02-23T15:28:37.001Z,67.50
2019-02-23T15:31:06.368Z,67.40
2019-02-23T15:34:14.869Z,67.40
2019-02-23T15:37:23.364Z,67.50
2019-02-23T15:40:31.896Z,66.90
2019-02-23T15:43:39.024Z,67.10
2019-02-23T15:46:46.160Z,67.00
2019-02-23T15:49:33.974Z,67.30
2019-02-23T15:55:49.628Z,66.30
2019-02-23T15:58:37.396Z,67.10
2019-02-23T16:01:18.389Z,67.40
2019-02-23T16:03:59.190Z,67.70
2019-02-23T16:06:39.780Z,67.80
2019-02-23T16:09:20.372Z,68.40
2019-02-23T16:12:01.685Z,68.20
2019-02-23T16:14:42.270Z,69.40
2019-02-23T16:17:23.263Z,69.50
2019-02-23T16:20:03.701Z,70.50
2019-02-23T16:22:44.690Z,70.20
2019-02-23T16:25:37.748Z,70.80
2019-02-23T16:28:08.589Z,71.00
2019-02-23T16:30:48.960Z,71.00
2019-02-23T16:33:29.684Z,71.90
2019-02-23T16:36:09.924Z,72.40
2019-02-23T16:38:50.948Z,72.60
2019-02-23T16:41:32.029Z,74.00
2019-02-23T16:44:00.711Z,73.00
2019-02-23T16:46:48.473Z,72.80
2019-02-23T16:49:36.217Z,74.90
2019-02-23T16:52:23.978Z,74.00
2019-02-23T16:55:11.720Z,73.50
2019-02-23T16:57:59.534Z,73.50
2019-02-23T17:00:47.276Z,73.90
2019-02-23T17:03:35.057Z,73.90
2019-02-23T17:06:22.792Z,74.20
2019-02-23T17:09:10.636Z,74.60
2019-02-23T17:12:01.440Z,75.20
2019-02-23T17:14:47.867Z,75.20
2019-02-23T17:17:35.612Z,75.10
2019-02-23T17:20:25.610Z,75.20
2019-02-23T17:23:12.867Z,74.90
2019-02-23T17:26:04.322Z,74.60
2019-02-23T17:28:50.093Z,75.20
2019-02-23T17:31:37.860Z,75.50
2019-02-23T17:34:25.668Z,75.10
2019-02-23T17:37:13.755Z,74.80
2019-02-23T17:40:01.578Z,74.20
2019-02-23T17:42:49.404Z,74.60
2019-02-23T17:45:30.073Z,74.10
2019-02-23T17:48:10.742Z,74.10
2019-02-23T17:50:51.361Z,75.40
2019-02-23T17:53:32.138Z,75.50
2019-02-23T17:56:00.553Z,76.10
2019-02-23T17:58:48.314Z,75.80
2019-02-23T18:01:36.059Z,76.30
2019-02-23T18:04:23.810Z,76.60
2019-02-23T18:07:11.944Z,77.00
2019-02-23T18:09:59.720Z,76.30
2019-02-23T18:12:47.464Z,76.50
2019-02-23T18:15:35.257Z,76.50
2019-02-23T18:18:23.286Z,76.10
2019-02-23T18:21:11.049Z,76.30
2019-02-23T18:23:51.799Z,76.80
2019-02-23T18:26:32.276Z,76.40
2019-02-23T18:29:00.692Z,76.40
2019-02-23T18:31:48.427Z,75.90
2019-02-23T18:34:36.188Z,75.40
2019-02-23T18:37:23.940Z,75.40
2019-02-23T18:40:11.699Z,75.40
2019-02-23T18:42:59.687Z,74.40
2019-02-23T18:45:47.796Z,74.50
2019-02-23T18:48:36.932Z,74.30
2019-02-23T18:51:24.696Z,74.10
2019-02-23T18:54:12.452Z,74.30
2019-02-23T18:57:00.192Z,73.60
2019-02-23T18:59:47.973Z,73.40
2019-02-23T19:02:35.716Z,72.50
2019-02-23T19:05:23.709Z,72.70
2019-02-23T19:08:11.705Z,72.50
2019-02-23T19:10:52.192Z,72.30
2019-02-23T19:13:32.904Z,71.80
2019-02-23T19:16:13.760Z,71.70
2019-02-23T19:18:54.531Z,71.50
2019-02-23T19:21:35.330Z,71.40
2019-02-23T19:24:16.048Z,71.10
2019-02-23T19:26:57.049Z,71.00
2019-02-23T19:29:37.946Z,70.50
2019-02-23T19:32:19.074Z,70.30
2019-02-23T19:35:00.020Z,70.10
2019-02-23T19:37:40.853Z,70.60
2019-02-23T19:40:21.616Z,70.80
2019-02-23T19:43:01.882Z,70.30
2019-02-23T19:45:42.748Z,70.10
2019-02-23T19:48:23.540Z,70.40
2019-02-23T19:51:04.645Z,70.50
2019-02-23T19:53:45.210Z,70.70
2019-02-23T19:56:25.516Z,70.40
2019-02-23T19:59:06.445Z,70.50
2019-02-23T20:01:47.272Z,70.70
2019-02-23T20:04:28.013Z,70.90
2019-02-23T20:07:08.777Z,70.80
2019-02-23T20:09:49.737Z,70.80
2019-02-23T20:12:30.566Z,70.70
2019-02-23T20:15:11.144Z,70.60
2019-02-23T20:17:51.788Z,70.50
2019-02-23T20:20:33.044Z,70.50
2019-02-23T20:23:13.600Z,70.70
2019-02-23T20:25:54.441Z,70.70
2019-02-23T20:28:34.936Z,71.00
2019-02-23T20:31:15.900Z,72.70
2019-02-23T20:33:57.025Z,71.00
2019-02-23T20:36:37.999Z,70.60
2019-02-23T20:39:18.389Z,71.30
2019-02-23T20:41:58.994Z,71.20
2019-02-23T20:44:41.184Z,71.50
2019-02-23T20:47:21.921Z,71.70
2019-02-23T20:50:02.484Z,71.90
2019-02-23T20:52:43.217Z,72.40
2019-02-23T20:55:24.056Z,72.60
2019-02-23T20:58:05.071Z,72.50
2019-02-23T21:00:45.484Z,72.70
2019-02-23T21:03:25.939Z,73.30
2019-02-23T21:06:06.753Z,73.20
2019-02-23T21:08:47.520Z,73.20
2019-02-23T21:11:28.003Z,73.50
2019-02-23T21:14:08.851Z,73.50
2019-02-23T21:16:49.747Z,73.90
2019-02-23T21:19:30.472Z,73.70
2019-02-23T21:21:58.895Z,73.60
2019-02-23T21:24:47.026Z,74.20
2019-02-23T21:27:34.784Z,73.80
2019-02-23T21:30:22.575Z,74.80
2019-02-23T21:33:10.361Z,75.00
2019-02-23T21:35:58.102Z,75.20
2019-02-23T21:38:45.863Z,74.50
2019-02-23T21:41:33.597Z,75.10
2019-02-23T21:44:21.352Z,75.80
2019-02-23T21:47:09.112Z,75.80
2019-02-23T21:49:56.874Z,75.60
2019-02-23T21:52:44.701Z,76.10
2019-02-23T21:55:32.473Z,75.70
2019-02-23T21:58:20.220Z,75.90
2019-02-23T22:01:07.976Z,76.40
2019-02-23T22:03:55.716Z,76.10
2019-02-23T22:06:43.519Z,76.20
2019-02-23T22:09:23.837Z,76.20
2019-02-23T22:12:04.425Z,76.60
2019-02-23T22:14:45.083Z,76.70
2019-02-23T22:17:25.689Z,76.90
2019-02-23T22:20:06.469Z,77.50
2019-02-23T22:22:47.293Z,77.80
2019-02-23T22:25:27.621Z,77.80
2019-02-23T22:28:08.743Z,78.70
2019-02-23T22:30:49.306Z,78.40
2019-02-23T22:33:30.205Z,79.00
2019-02-23T22:36:10.844Z,78.70
2019-02-23T22:38:51.676Z,78.80
2019-02-23T22:41:32.233Z,80.00
2019-02-23T22:44:00.633Z,79.70
2019-02-23T22:46:48.391Z,80.20
2019-02-23T22:49:36.160Z,80.30
2019-02-23T22:52:23.964Z,80.50
2019-02-23T22:55:11.704Z,80.70
2019-02-23T22:58:18.668Z,80.90
2019-02-23T23:04:14.939Z,81.30
2019-02-23T23:07:02.671Z,81.50
2019-02-23T23:09:50.423Z,82.00
2019-02-23T23:12:38.187Z,81.90
2019-02-23T23:15:25.929Z,82.00
2019-02-23T23:18:13.692Z,82.20
2019-02-23T23:21:01.737Z,83.80
2019-02-23T23:23:49.489Z,83.60
2019-02-23T23:26:37.237Z,84.50
2019-02-23T23:29:24.988Z,84.60
2019-02-23T23:32:12.737Z,84.80
2019-02-23T23:35:00.532Z,85.40
2019-02-23T23:37:48.289Z,85.50
2019-02-23T23:40:36.057Z,86.60
2019-02-23T23:43:24.108Z,87.10
2019-02-23T23:46:11.874Z,87.80
2019-02-23T23:48:59.616Z,87.90
2019-02-23T23:51:39.964Z,88.10
2019-02-23T23:54:08.624Z,88.10
2019-02-23T23:56:56.367Z,88.60
2019-02-23T23:59:37.426Z,89.20
